Terminal Aerodrome Forecast
Issued by NWS

Home | Current Version | Previous Version | Text Only | Print | Product List | Glossary On
Versions: 1 2 3 4 5 6 7 8 9 10 11 12 13 14 15 16 17 18
993
FTUS41 KPBZ 242120 AAA
TAFFKL
TAF AMD
KFKL 242120Z 2421/2518 20010KT P6SM SKC
     FM250200 18009KT P6SM SCT200 WS020/22045KT
     FM251200 21008KT P6SM VCSH BKN110
     FM251500 23008KT P6SM VCSH BKN030=

USA.gov is the U.S. government's official web portal to all federal, state and local government web resources and services.